sensor_id;sensor_type;location;lat;lon;timestamp;temperature;humidity
17066;DHT22;23120;52.336;21.182;2022-09-20T00:01:03;9.30;94.20
17066;DHT22;23120;52.336;21.182;2022-09-20T00:03:29;9.30;94.10
17066;DHT22;23120;52.336;21.182;2022-09-20T00:05:59;9.30;94.10
17066;DHT22;23120;52.336;21.182;2022-09-20T00:08:27;9.30;94.10
17066;DHT22;23120;52.336;21.182;2022-09-20T00:10:57;9.20;94.00
17066;DHT22;23120;52.336;21.182;2022-09-20T00:13:24;9.20;94.00
17066;DHT22;23120;52.336;21.182;2022-09-20T00:15:51;9.20;94.00
17066;DHT22;23120;52.336;21.182;2022-09-20T00:18:18;9.10;94.00
17066;DHT22;23120;52.336;21.182;2022-09-20T00:20:45;9.10;94.00
17066;DHT22;23120;52.336;21.182;2022-09-20T00:23:14;9.10;94.00
17066;DHT22;23120;52.336;21.182;2022-09-20T00:25:41;9.10;94.10
17066;DHT22;23120;52.336;21.182;2022-09-20T00:28:09;9.10;94.10
17066;DHT22;23120;52.336;21.182;2022-09-20T00:30:36;9.00;94.00
17066;DHT22;23120;52.336;21.182;2022-09-20T00:33:03;9.00;94.00
17066;DHT22;23120;52.336;21.182;2022-09-20T00:35:30;9.00;94.00
17066;DHT22;23120;52.336;21.182;2022-09-20T00:37:56;9.00;94.00
17066;DHT22;23120;52.336;21.182;2022-09-20T00:40:24;9.00;94.00
17066;DHT22;23120;52.336;21.182;2022-09-20T00:42:52;8.90;94.00
17066;DHT22;23120;52.336;21.182;2022-09-20T00:45:20;8.90;94.10
17066;DHT22;23120;52.336;21.182;2022-09-20T00:47:51;8.90;94.00
17066;DHT22;23120;52.336;21.182;2022-09-20T00:50:30;8.90;94.00
17066;DHT22;23120;52.336;21.182;2022-09-20T00:53:03;8.80;94.00
17066;DHT22;23120;52.336;21.182;2022-09-20T00:55:36;8.80;94.00
17066;DHT22;23120;52.336;21.182;2022-09-20T00:58:04;8.80;94.20
17066;DHT22;23120;52.336;21.182;2022-09-20T01:00:31;8.80;94.30
17066;DHT22;23120;52.336;21.182;2022-09-20T01:03:02;8.80;94.30
17066;DHT22;23120;52.336;21.182;2022-09-20T01:05:30;8.80;94.40
17066;DHT22;23120;52.336;21.182;2022-09-20T01:07:58;8.80;94.40
17066;DHT22;23120;52.336;21.182;2022-09-20T01:10:25;8.80;94.40
17066;DHT22;23120;52.336;21.182;2022-09-20T01:12:53;8.80;94.40
17066;DHT22;23120;52.336;21.182;2022-09-20T01:15:20;8.80;94.50
17066;DHT22;23120;52.336;21.182;2022-09-20T01:17:51;8.80;94.70
17066;DHT22;23120;52.336;21.182;2022-09-20T01:20:22;8.80;94.60
17066;DHT22;23120;52.336;21.182;2022-09-20T01:26:24;8.80;94.70
17066;DHT22;23120;52.336;21.182;2022-09-20T01:29:01;8.80;94.60
17066;DHT22;23120;52.336;21.182;2022-09-20T01:31:33;8.80;94.50
17066;DHT22;23120;52.336;21.182;2022-09-20T01:34:02;8.80;94.60
17066;DHT22;23120;52.336;21.182;2022-09-20T01:36:36;8.80;94.60
17066;DHT22;23120;52.336;21.182;2022-09-20T01:39:09;8.80;94.90
17066;DHT22;23120;52.336;21.182;2022-09-20T01:41:41;8.80;94.60
17066;DHT22;23120;52.336;21.182;2022-09-20T01:44:16;8.90;94.70
17066;DHT22;23120;52.336;21.182;2022-09-20T01:46:49;8.80;94.80
17066;DHT22;23120;52.336;21.182;2022-09-20T01:49:24;8.80;94.70
17066;DHT22;23120;52.336;21.182;2022-09-20T01:52:30;8.80;94.90
17066;DHT22;23120;52.336;21.182;2022-09-20T01:58:25;8.80;95.30
17066;DHT22;23120;52.336;21.182;2022-09-20T02:01:24;8.80;94.90
17066;DHT22;23120;52.336;21.182;2022-09-20T02:04:08;8.80;94.80
17066;DHT22;23120;52.336;21.182;2022-09-20T02:06:51;8.90;95.00
17066;DHT22;23120;52.336;21.182;2022-09-20T02:09:55;8.90;95.00
17066;DHT22;23120;52.336;21.182;2022-09-20T02:15:30;8.90;95.00
17066;DHT22;23120;52.336;21.182;2022-09-20T02:18:14;8.90;94.80
17066;DHT22;23120;52.336;21.182;2022-09-20T02:20:51;8.90;94.90
17066;DHT22;23120;52.336;21.182;2022-09-20T02:23:29;8.90;94.90
17066;DHT22;23120;52.336;21.182;2022-09-20T02:26:08;8.90;94.90
17066;DHT22;23120;52.336;21.182;2022-09-20T02:28:51;8.90;95.00
17066;DHT22;23120;52.336;21.182;2022-09-20T02:31:26;8.90;94.90
17066;DHT22;23120;52.336;21.182;2022-09-20T02:34:08;8.90;94.80
17066;DHT22;23120;52.336;21.182;2022-09-20T02:36:45;8.90;95.00
17066;DHT22;23120;52.336;21.182;2022-09-20T02:39:22;8.90;95.20
17066;DHT22;23120;52.336;21.182;2022-09-20T02:41:55;8.90;95.10
17066;DHT22;23120;52.336;21.182;2022-09-20T02:44:44;8.90;95.00
17066;DHT22;23120;52.336;21.182;2022-09-20T02:47:20;8.90;95.00
17066;DHT22;23120;52.336;21.182;2022-09-20T02:50:00;8.90;95.10
17066;DHT22;23120;52.336;21.182;2022-09-20T02:52:34;8.90;95.00
17066;DHT22;23120;52.336;21.182;2022-09-20T02:55:08;8.90;95.00
17066;DHT22;23120;52.336;21.182;2022-09-20T02:57:46;8.90;95.10
17066;DHT22;23120;52.336;21.182;2022-09-20T03:00:19;8.90;95.00
17066;DHT22;23120;52.336;21.182;2022-09-20T03:02:58;8.90;95.00
17066;DHT22;23120;52.336;21.182;2022-09-20T03:05:33;8.90;95.20
17066;DHT22;23120;52.336;21.182;2022-09-20T03:08:25;8.90;95.10
17066;DHT22;23120;52.336;21.182;2022-09-20T03:11:03;8.90;95.10
17066;DHT22;23120;52.336;21.182;2022-09-20T03:13:45;8.90;95.00
17066;DHT22;23120;52.336;21.182;2022-09-20T03:16:20;8.90;95.20
17066;DHT22;23120;52.336;21.182;2022-09-20T03:18:59;8.90;94.90
17066;DHT22;23120;52.336;21.182;2022-09-20T03:21:43;8.90;95.00
17066;DHT22;23120;52.336;21.182;2022-09-20T03:24:19;8.90;95.00
17066;DHT22;23120;52.336;21.182;2022-09-20T03:26:54;8.90;95.00
17066;DHT22;23120;52.336;21.182;2022-09-20T03:29:33;8.90;95.00
17066;DHT22;23120;52.336;21.182;2022-09-20T03:32:16;8.90;94.90
17066;DHT22;23120;52.336;21.182;2022-09-20T03:34:55;8.90;95.00
17066;DHT22;23120;52.336;21.182;2022-09-20T03:37:38;8.90;94.90
17066;DHT22;23120;52.336;21.182;2022-09-20T03:40:43;8.90;94.80
17066;DHT22;23120;52.336;21.182;2022-09-20T03:43:25;8.90;94.90
17066;DHT22;23120;52.336;21.182;2022-09-20T03:46:06;8.90;94.90
17066;DHT22;23120;52.336;21.182;2022-09-20T03:51:44;8.90;94.90
17066;DHT22;23120;52.336;21.182;2022-09-20T03:54:42;9.00;95.10
17066;DHT22;23120;52.336;21.182;2022-09-20T04:00:19;9.00;95.10
17066;DHT22;23120;52.336;21.182;2022-09-20T04:03:09;9.00;95.00
17066;DHT22;23120;52.336;21.182;2022-09-20T04:05:46;9.00;95.10
17066;DHT22;23120;52.336;21.182;2022-09-20T04:08:24;9.00;95.40
17066;DHT22;23120;52.336;21.182;2022-09-20T04:11:03;9.00;95.00
17066;DHT22;23120;52.336;21.182;2022-09-20T04:13:35;9.00;95.10
17066;DHT22;23120;52.336;21.182;2022-09-20T04:16:13;9.00;95.00
17066;DHT22;23120;52.336;21.182;2022-09-20T04:18:49;9.00;95.00
17066;DHT22;23120;52.336;21.182;2022-09-20T04:21:22;9.00;95.20
17066;DHT22;23120;52.336;21.182;2022-09-20T04:23:57;9.00;95.20
17066;DHT22;23120;52.336;21.182;2022-09-20T04:26:29;9.00;95.10
17066;DHT22;23120;52.336;21.182;2022-09-20T04:29:01;9.00;95.10
17066;DHT22;23120;52.336;21.182;2022-09-20T04:31:36;9.00;95.30
17066;DHT22;23120;52.336;21.182;2022-09-20T04:34:14;9.10;95.20
17066;DHT22;23120;52.336;21.182;2022-09-20T04:36:58;9.10;95.10
17066;DHT22;23120;52.336;21.182;2022-09-20T04:39:36;9.10;95.10
17066;DHT22;23120;52.336;21.182;2022-09-20T04:42:32;9.10;95.10
17066;DHT22;23120;52.336;21.182;2022-09-20T04:45:22;9.10;95.30
17066;DHT22;23120;52.336;21.182;2022-09-20T04:48:38;9.10;95.10
17066;DHT22;23120;52.336;21.182;2022-09-20T04:51:36;9.10;95.10
17066;DHT22;23120;52.336;21.182;2022-09-20T04:54:36;9.10;95.00
17066;DHT22;23120;52.336;21.182;2022-09-20T05:00:14;9.10;95.10
17066;DHT22;23120;52.336;21.182;2022-09-20T05:03:01;9.20;95.20
17066;DHT22;23120;52.336;21.182;2022-09-20T05:06:09;9.20;95.20
17066;DHT22;23120;52.336;21.182;2022-09-20T05:09:00;9.20;95.40
17066;DHT22;23120;52.336;21.182;2022-09-20T05:11:51;9.20;95.50
17066;DHT22;23120;52.336;21.182;2022-09-20T05:14:48;9.20;95.20
17066;DHT22;23120;52.336;21.182;2022-09-20T05:17:29;9.20;95.40
17066;DHT22;23120;52.336;21.182;2022-09-20T05:20:20;9.20;95.60
17066;DHT22;23120;52.336;21.182;2022-09-20T05:26:11;9.30;95.40
17066;DHT22;23120;52.336;21.182;2022-09-20T05:28:48;9.30;95.30
17066;DHT22;23120;52.336;21.182;2022-09-20T05:31:23;9.30;95.20
17066;DHT22;23120;52.336;21.182;2022-09-20T05:33:59;9.30;95.40
17066;DHT22;23120;52.336;21.182;2022-09-20T05:36:38;9.40;95.50
17066;DHT22;23120;52.336;21.182;2022-09-20T05:39:16;9.40;95.40
17066;DHT22;23120;52.336;21.182;2022-09-20T05:41:51;9.40;95.60
17066;DHT22;23120;52.336;21.182;2022-09-20T05:44:29;9.40;95.30
17066;DHT22;23120;52.336;21.182;2022-09-20T05:47:04;9.40;95.40
17066;DHT22;23120;52.336;21.182;2022-09-20T05:49:43;9.40;95.40
17066;DHT22;23120;52.336;21.182;2022-09-20T05:52:24;9.40;95.70
17066;DHT22;23120;52.336;21.182;2022-09-20T05:55:03;9.40;95.30
17066;DHT22;23120;52.336;21.182;2022-09-20T05:57:47;9.50;95.30
17066;DHT22;23120;52.336;21.182;2022-09-20T06:00:22;9.50;95.30
17066;DHT22;23120;52.336;21.182;2022-09-20T06:02:55;9.50;95.60
17066;DHT22;23120;52.336;21.182;2022-09-20T06:05:32;9.50;95.30
17066;DHT22;23120;52.336;21.182;2022-09-20T06:08:17;9.50;95.70
17066;DHT22;23120;52.336;21.182;2022-09-20T06:11:17;9.60;95.40
17066;DHT22;23120;52.336;21.182;2022-09-20T06:14:00;9.60;95.60
17066;DHT22;23120;52.336;21.182;2022-09-20T06:16:39;9.70;95.70
17066;DHT22;23120;52.336;21.182;2022-09-20T06:19:17;9.70;95.80
17066;DHT22;23120;52.336;21.182;2022-09-20T06:21:50;9.70;95.80
17066;DHT22;23120;52.336;21.182;2022-09-20T06:24:26;9.80;95.90
17066;DHT22;23120;52.336;21.182;2022-09-20T06:26:56;9.80;95.80
17066;DHT22;23120;52.336;21.182;2022-09-20T06:29:28;9.80;95.80
17066;DHT22;23120;52.336;21.182;2022-09-20T06:31:56;9.90;96.00
17066;DHT22;23120;52.336;21.182;2022-09-20T06:34:23;9.90;95.80
17066;DHT22;23120;52.336;21.182;2022-09-20T06:36:59;9.90;95.90
17066;DHT22;23120;52.336;21.182;2022-09-20T06:39:49;10.00;95.30
17066;DHT22;23120;52.336;21.182;2022-09-20T06:42:34;10.00;95.20
17066;DHT22;23120;52.336;21.182;2022-09-20T06:45:04;10.10;95.20
17066;DHT22;23120;52.336;21.182;2022-09-20T06:47:31;10.10;95.20
17066;DHT22;23120;52.336;21.182;2022-09-20T06:49:58;10.10;95.10
17066;DHT22;23120;52.336;21.182;2022-09-20T06:52:26;10.20;95.10
17066;DHT22;23120;52.336;21.182;2022-09-20T06:54:54;10.20;95.20
17066;DHT22;23120;52.336;21.182;2022-09-20T06:57:23;10.20;95.10
17066;DHT22;23120;52.336;21.182;2022-09-20T06:59:53;10.30;95.20
17066;DHT22;23120;52.336;21.182;2022-09-20T07:02:19;10.30;95.10
17066;DHT22;23120;52.336;21.182;2022-09-20T07:04:46;10.40;95.10
17066;DHT22;23120;52.336;21.182;2022-09-20T07:07:15;10.40;95.10
17066;DHT22;23120;52.336;21.182;2022-09-20T07:09:44;10.40;95.00
17066;DHT22;23120;52.336;21.182;2022-09-20T07:12:12;10.50;95.00
17066;DHT22;23120;52.336;21.182;2022-09-20T07:14:39;10.50;94.90
17066;DHT22;23120;52.336;21.182;2022-09-20T07:17:06;10.50;94.80
17066;DHT22;23120;52.336;21.182;2022-09-20T07:19:32;10.50;94.90
17066;DHT22;23120;52.336;21.182;2022-09-20T07:21:59;10.60;94.90
17066;DHT22;23120;52.336;21.182;2022-09-20T07:24:26;10.60;94.90
17066;DHT22;23120;52.336;21.182;2022-09-20T07:26:59;10.60;94.80
17066;DHT22;23120;52.336;21.182;2022-09-20T07:29:27;10.70;94.80
17066;DHT22;23120;52.336;21.182;2022-09-20T07:31:56;10.70;94.80
17066;DHT22;23120;52.336;21.182;2022-09-20T07:34:23;10.70;94.70
17066;DHT22;23120;52.336;21.182;2022-09-20T07:36:50;10.80;94.60
17066;DHT22;23120;52.336;21.182;2022-09-20T07:39:17;10.80;94.60
17066;DHT22;23120;52.336;21.182;2022-09-20T07:41:44;10.90;94.70
17066;DHT22;23120;52.336;21.182;2022-09-20T07:44:14;10.90;94.70
17066;DHT22;23120;52.336;21.182;2022-09-20T07:46:49;11.00;94.60
17066;DHT22;23120;52.336;21.182;2022-09-20T07:49:17;11.00;94.60
17066;DHT22;23120;52.336;21.182;2022-09-20T07:51:44;11.10;94.60
17066;DHT22;23120;52.336;21.182;2022-09-20T07:54:11;11.20;94.70
17066;DHT22;23120;52.336;21.182;2022-09-20T07:56:38;11.20;94.60
17066;DHT22;23120;52.336;21.182;2022-09-20T07:59:05;11.20;94.50
17066;DHT22;23120;52.336;21.182;2022-09-20T08:01:33;11.30;94.50
17066;DHT22;23120;52.336;21.182;2022-09-20T08:04:00;11.30;94.50
17066;DHT22;23120;52.336;21.182;2022-09-20T08:06:27;11.40;94.50
17066;DHT22;23120;52.336;21.182;2022-09-20T08:08:54;11.40;94.40
17066;DHT22;23120;52.336;21.182;2022-09-20T08:11:23;11.40;94.40
17066;DHT22;23120;52.336;21.182;2022-09-20T08:13:51;11.50;94.30
17066;DHT22;23120;52.336;21.182;2022-09-20T08:16:19;11.50;94.20
17066;DHT22;23120;52.336;21.182;2022-09-20T08:18:49;11.50;94.20
17066;DHT22;23120;52.336;21.182;2022-09-20T08:21:17;11.60;94.30
17066;DHT22;23120;52.336;21.182;2022-09-20T08:23:45;11.60;94.30
17066;DHT22;23120;52.336;21.182;2022-09-20T08:26:14;11.70;94.20
17066;DHT22;23120;52.336;21.182;2022-09-20T08:28:43;11.70;94.10
17066;DHT22;23120;52.336;21.182;2022-09-20T08:31:12;11.70;94.00
17066;DHT22;23120;52.336;21.182;2022-09-20T08:33:41;11.80;94.10
17066;DHT22;23120;52.336;21.182;2022-09-20T08:36:12;11.90;94.00
17066;DHT22;23120;52.336;21.182;2022-09-20T08:38:39;11.90;94.00
17066;DHT22;23120;52.336;21.182;2022-09-20T08:41:10;11.90;94.00
17066;DHT22;23120;52.336;21.182;2022-09-20T08:43:40;11.90;93.90
17066;DHT22;23120;52.336;21.182;2022-09-20T08:46:13;12.00;93.90
17066;DHT22;23120;52.336;21.182;2022-09-20T08:48:41;12.00;93.80
17066;DHT22;23120;52.336;21.182;2022-09-20T08:51:13;12.00;93.80
17066;DHT22;23120;52.336;21.182;2022-09-20T08:53:45;12.00;93.70
17066;DHT22;23120;52.336;21.182;2022-09-20T08:56:12;12.00;93.70
17066;DHT22;23120;52.336;21.182;2022-09-20T08:58:39;12.00;93.70
17066;DHT22;23120;52.336;21.182;2022-09-20T09:01:06;12.00;93.70
17066;DHT22;23120;52.336;21.182;2022-09-20T09:03:37;12.10;93.70
17066;DHT22;23120;52.336;21.182;2022-09-20T09:06:04;12.10;93.60
17066;DHT22;23120;52.336;21.182;2022-09-20T09:08:36;12.10;93.60
17066;DHT22;23120;52.336;21.182;2022-09-20T09:11:06;12.10;93.60
17066;DHT22;23120;52.336;21.182;2022-09-20T09:13:45;12.10;93.40
17066;DHT22;23120;52.336;21.182;2022-09-20T09:16:15;12.10;93.50
17066;DHT22;23120;52.336;21.182;2022-09-20T09:18:45;12.20;93.60
17066;DHT22;23120;52.336;21.182;2022-09-20T09:21:18;12.20;93.60
17066;DHT22;23120;52.336;21.182;2022-09-20T09:23:50;12.30;93.80
17066;DHT22;23120;52.336;21.182;2022-09-20T09:26:20;12.40;93.80
17066;DHT22;23120;52.336;21.182;2022-09-20T09:29:06;12.40;93.70
17066;DHT22;23120;52.336;21.182;2022-09-20T09:31:33;12.50;93.80
17066;DHT22;23120;52.336;21.182;2022-09-20T09:34:01;12.60;93.80
17066;DHT22;23120;52.336;21.182;2022-09-20T09:36:28;12.60;93.50
17066;DHT22;23120;52.336;21.182;2022-09-20T09:39:15;12.70;93.30
17066;DHT22;23120;52.336;21.182;2022-09-20T09:41:42;12.70;93.30
17066;DHT22;23120;52.336;21.182;2022-09-20T09:44:19;12.80;93.30
17066;DHT22;23120;52.336;21.182;2022-09-20T09:46:47;12.80;93.30
17066;DHT22;23120;52.336;21.182;2022-09-20T09:49:16;12.80;93.30
17066;DHT22;23120;52.336;21.182;2022-09-20T09:52:00;12.90;93.20
17066;DHT22;23120;52.336;21.182;2022-09-20T09:54:33;12.90;93.20
17066;DHT22;23120;52.336;21.182;2022-09-20T09:57:14;12.90;93.20
17066;DHT22;23120;52.336;21.182;2022-09-20T09:59:54;12.90;93.10
17066;DHT22;23120;52.336;21.182;2022-09-20T10:02:48;12.90;93.00
17066;DHT22;23120;52.336;21.182;2022-09-20T10:05:22;12.90;92.90
17066;DHT22;23120;52.336;21.182;2022-09-20T10:07:58;13.00;92.90
17066;DHT22;23120;52.336;21.182;2022-09-20T10:10:36;13.00;93.00
17066;DHT22;23120;52.336;21.182;2022-09-20T10:13:13;13.00;93.00
17066;DHT22;23120;52.336;21.182;2022-09-20T10:15:48;13.00;93.00
17066;DHT22;23120;52.336;21.182;2022-09-20T10:18:28;13.10;93.00
17066;DHT22;23120;52.336;21.182;2022-09-20T10:21:05;13.10;93.10
17066;DHT22;23120;52.336;21.182;2022-09-20T10:23:48;13.20;93.20
17066;DHT22;23120;52.336;21.182;2022-09-20T10:26:35;13.30;93.20
17066;DHT22;23120;52.336;21.182;2022-09-20T10:29:10;13.40;93.10
17066;DHT22;23120;52.336;21.182;2022-09-20T10:31:51;13.40;93.20
17066;DHT22;23120;52.336;21.182;2022-09-20T10:34:45;13.60;93.20
17066;DHT22;23120;52.336;21.182;2022-09-20T10:37:18;13.70;93.20
17066;DHT22;23120;52.336;21.182;2022-09-20T10:39:53;13.70;93.10
17066;DHT22;23120;52.336;21.182;2022-09-20T10:42:29;13.80;92.90
17066;DHT22;23120;52.336;21.182;2022-09-20T10:45:21;13.80;92.70
17066;DHT22;23120;52.336;21.182;2022-09-20T10:47:56;13.80;92.60
17066;DHT22;23120;52.336;21.182;2022-09-20T10:50:32;13.90;92.40
17066;DHT22;23120;52.336;21.182;2022-09-20T10:53:12;14.00;92.70
17066;DHT22;23120;52.336;21.182;2022-09-20T10:55:49;14.00;92.60
17066;DHT22;23120;52.336;21.182;2022-09-20T10:58:39;14.10;92.60
17066;DHT22;23120;52.336;21.182;2022-09-20T11:01:13;14.10;92.30
17066;DHT22;23120;52.336;21.182;2022-09-20T11:04:00;14.20;92.40
17066;DHT22;23120;52.336;21.182;2022-09-20T11:06:41;14.20;92.20
17066;DHT22;23120;52.336;21.182;2022-09-20T11:09:16;14.30;92.20
17066;DHT22;23120;52.336;21.182;2022-09-20T11:11:47;14.30;91.90
17066;DHT22;23120;52.336;21.182;2022-09-20T11:14:20;14.30;91.30
17066;DHT22;23120;52.336;21.182;2022-09-20T11:16:51;14.40;91.70
17066;DHT22;23120;52.336;21.182;2022-09-20T11:19:23;14.40;91.70
17066;DHT22;23120;52.336;21.182;2022-09-20T11:21:54;14.50;91.80
17066;DHT22;23120;52.336;21.182;2022-09-20T11:24:29;14.50;91.80
17066;DHT22;23120;52.336;21.182;2022-09-20T11:26:59;14.50;91.80
17066;DHT22;23120;52.336;21.182;2022-09-20T11:29:32;14.60;91.70
17066;DHT22;23120;52.336;21.182;2022-09-20T11:32:05;14.60;91.80
17066;DHT22;23120;52.336;21.182;2022-09-20T11:34:45;14.70;91.80
17066;DHT22;23120;52.336;21.182;2022-09-20T11:37:16;14.80;92.10
17066;DHT22;23120;52.336;21.182;2022-09-20T11:39:47;14.90;91.70
17066;DHT22;23120;52.336;21.182;2022-09-20T11:42:18;14.90;91.70
17066;DHT22;23120;52.336;21.182;2022-09-20T11:44:49;15.00;91.70
17066;DHT22;23120;52.336;21.182;2022-09-20T11:47:19;15.00;91.50
17066;DHT22;23120;52.336;21.182;2022-09-20T11:50:00;15.10;91.30
17066;DHT22;23120;52.336;21.182;2022-09-20T11:52:40;15.10;91.30
17066;DHT22;23120;52.336;21.182;2022-09-20T11:55:35;15.20;91.10
17066;DHT22;23120;52.336;21.182;2022-09-20T11:58:08;15.20;90.70
17066;DHT22;23120;52.336;21.182;2022-09-20T12:00:39;15.20;90.90
17066;DHT22;23120;52.336;21.182;2022-09-20T12:03:27;15.20;90.80
17066;DHT22;23120;52.336;21.182;2022-09-20T12:05:58;15.30;90.90
17066;DHT22;23120;52.336;21.182;2022-09-20T12:08:29;15.30;90.70
17066;DHT22;23120;52.336;21.182;2022-09-20T12:11:00;15.20;90.30
17066;DHT22;23120;52.336;21.182;2022-09-20T12:13:29;15.20;90.20
17066;DHT22;23120;52.336;21.182;2022-09-20T12:16:01;15.20;90.30
17066;DHT22;23120;52.336;21.182;2022-09-20T12:18:47;15.20;90.20
17066;DHT22;23120;52.336;21.182;2022-09-20T12:21:26;15.20;89.50
17066;DHT22;23120;52.336;21.182;2022-09-20T12:26:54;15.20;90.20
17066;DHT22;23120;52.336;21.182;2022-09-20T12:32:53;15.30;90.20
17066;DHT22;23120;52.336;21.182;2022-09-20T12:36:14;15.30;90.30
17066;DHT22;23120;52.336;21.182;2022-09-20T12:38:54;15.30;90.00
17066;DHT22;23120;52.336;21.182;2022-09-20T12:41:22;15.30;90.10
17066;DHT22;23120;52.336;21.182;2022-09-20T12:46:42;15.40;89.70
17066;DHT22;23120;52.336;21.182;2022-09-20T12:49:21;15.40;89.70
17066;DHT22;23120;52.336;21.182;2022-09-20T12:52:20;15.40;89.10
17066;DHT22;23120;52.336;21.182;2022-09-20T12:55:05;15.40;89.70
17066;DHT22;23120;52.336;21.182;2022-09-20T12:57:32;15.40;89.10
17066;DHT22;23120;52.336;21.182;2022-09-20T13:00:03;15.40;89.40
17066;DHT22;23120;52.336;21.182;2022-09-20T13:05:33;15.50;89.80
17066;DHT22;23120;52.336;21.182;2022-09-20T13:08:03;15.60;89.30
17066;DHT22;23120;52.336;21.182;2022-09-20T13:10:39;15.70;89.30
17066;DHT22;23120;52.336;21.182;2022-09-20T13:13:18;15.70;88.90
17066;DHT22;23120;52.336;21.182;2022-09-20T13:15:50;15.80;89.20
17066;DHT22;23120;52.336;21.182;2022-09-20T13:18:18;15.80;88.90
17066;DHT22;23120;52.336;21.182;2022-09-20T13:20:49;15.90;88.70
17066;DHT22;23120;52.336;21.182;2022-09-20T13:23:19;16.00;88.60
17066;DHT22;23120;52.336;21.182;2022-09-20T13:25:47;16.00;88.50
17066;DHT22;23120;52.336;21.182;2022-09-20T13:28:23;16.10;88.10
17066;DHT22;23120;52.336;21.182;2022-09-20T13:31:26;16.20;88.30
17066;DHT22;23120;52.336;21.182;2022-09-20T13:33:53;16.20;87.00
17066;DHT22;23120;52.336;21.182;2022-09-20T13:36:27;16.30;87.30
17066;DHT22;23120;52.336;21.182;2022-09-20T13:38:56;16.30;86.80
17066;DHT22;23120;52.336;21.182;2022-09-20T13:41:27;16.40;87.20
17066;DHT22;23120;52.336;21.182;2022-09-20T13:43:54;16.40;87.20
17066;DHT22;23120;52.336;21.182;2022-09-20T13:46:23;16.50;87.30
17066;DHT22;23120;52.336;21.182;2022-09-20T13:49:11;16.50;86.30
17066;DHT22;23120;52.336;21.182;2022-09-20T13:51:40;16.50;83.70
17066;DHT22;23120;52.336;21.182;2022-09-20T13:54:19;16.40;83.50
17066;DHT22;23120;52.336;21.182;2022-09-20T13:56:48;16.40;81.80
17066;DHT22;23120;52.336;21.182;2022-09-20T13:59:15;16.30;82.30
17066;DHT22;23120;52.336;21.182;2022-09-20T14:01:48;16.20;82.50
17066;DHT22;23120;52.336;21.182;2022-09-20T14:04:17;16.30;82.50
17066;DHT22;23120;52.336;21.182;2022-09-20T14:06:47;16.20;81.70
17066;DHT22;23120;52.336;21.182;2022-09-20T14:09:20;16.20;82.40
17066;DHT22;23120;52.336;21.182;2022-09-20T14:11:49;16.10;81.70
17066;DHT22;23120;52.336;21.182;2022-09-20T14:14:18;16.10;81.50
17066;DHT22;23120;52.336;21.182;2022-09-20T14:16:46;16.00;81.40
17066;DHT22;23120;52.336;21.182;2022-09-20T14:19:15;15.90;81.20
17066;DHT22;23120;52.336;21.182;2022-09-20T14:21:43;15.90;81.10
17066;DHT22;23120;52.336;21.182;2022-09-20T14:24:27;15.80;81.00
17066;DHT22;23120;52.336;21.182;2022-09-20T14:27:16;15.70;81.30
17066;DHT22;23120;52.336;21.182;2022-09-20T14:29:44;15.70;81.50
17066;DHT22;23120;52.336;21.182;2022-09-20T14:32:25;15.60;81.10
17066;DHT22;23120;52.336;21.182;2022-09-20T14:34:59;15.60;81.90
17066;DHT22;23120;52.336;21.182;2022-09-20T14:37:28;15.60;81.90
17066;DHT22;23120;52.336;21.182;2022-09-20T14:39:59;15.60;82.00
17066;DHT22;23120;52.336;21.182;2022-09-20T14:42:30;15.70;82.30
17066;DHT22;23120;52.336;21.182;2022-09-20T14:44:58;15.80;83.00
17066;DHT22;23120;52.336;21.182;2022-09-20T14:47:27;15.80;81.60
17066;DHT22;23120;52.336;21.182;2022-09-20T14:49:54;15.80;82.50
17066;DHT22;23120;52.336;21.182;2022-09-20T14:52:37;15.90;82.60
17066;DHT22;23120;52.336;21.182;2022-09-20T14:55:23;15.90;81.00
17066;DHT22;23120;52.336;21.182;2022-09-20T14:58:00;15.80;81.30
17066;DHT22;23120;52.336;21.182;2022-09-20T15:00:28;15.80;80.30
17066;DHT22;23120;52.336;21.182;2022-09-20T15:03:01;15.70;80.00
17066;DHT22;23120;52.336;21.182;2022-09-20T15:05:30;15.70;81.50
17066;DHT22;23120;52.336;21.182;2022-09-20T15:07:56;15.60;81.10
17066;DHT22;23120;52.336;21.182;2022-09-20T15:10:25;15.60;80.80
17066;DHT22;23120;52.336;21.182;2022-09-20T15:12:52;15.50;79.10
17066;DHT22;23120;52.336;21.182;2022-09-20T15:15:19;15.40;78.00
17066;DHT22;23120;52.336;21.182;2022-09-20T15:17:46;15.20;78.50
17066;DHT22;23120;52.336;21.182;2022-09-20T15:20:16;15.20;79.00
17066;DHT22;23120;52.336;21.182;2022-09-20T15:22:43;15.20;79.50
17066;DHT22;23120;52.336;21.182;2022-09-20T15:25:15;15.20;80.00
17066;DHT22;23120;52.336;21.182;2022-09-20T15:27:44;15.00;79.70
17066;DHT22;23120;52.336;21.182;2022-09-20T15:30:14;15.00;80.80
17066;DHT22;23120;52.336;21.182;2022-09-20T15:32:42;14.90;80.90
17066;DHT22;23120;52.336;21.182;2022-09-20T15:35:10;14.90;81.00
17066;DHT22;23120;52.336;21.182;2022-09-20T15:37:38;14.80;81.10
17066;DHT22;23120;52.336;21.182;2022-09-20T15:40:07;14.70;81.00
17066;DHT22;23120;52.336;21.182;2022-09-20T15:42:34;14.60;81.50
17066;DHT22;23120;52.336;21.182;2022-09-20T15:45:07;14.50;82.00
17066;DHT22;23120;52.336;21.182;2022-09-20T15:47:35;14.40;82.30
17066;DHT22;23120;52.336;21.182;2022-09-20T15:50:03;14.40;82.60
17066;DHT22;23120;52.336;21.182;2022-09-20T15:52:35;14.30;83.30
17066;DHT22;23120;52.336;21.182;2022-09-20T15:55:05;14.30;83.30
17066;DHT22;23120;52.336;21.182;2022-09-20T15:57:33;14.20;83.40
17066;DHT22;23120;52.336;21.182;2022-09-20T16:00:01;14.10;83.70
17066;DHT22;23120;52.336;21.182;2022-09-20T16:02:35;14.10;83.90
17066;DHT22;23120;52.336;21.182;2022-09-20T16:05:03;14.00;84.00
17066;DHT22;23120;52.336;21.182;2022-09-20T16:07:30;14.00;84.70
17066;DHT22;23120;52.336;21.182;2022-09-20T16:09:57;13.90;84.60
17066;DHT22;23120;52.336;21.182;2022-09-20T16:12:24;13.80;85.00
17066;DHT22;23120;52.336;21.182;2022-09-20T16:14:51;13.80;85.10
17066;DHT22;23120;52.336;21.182;2022-09-20T16:17:18;13.70;85.30
17066;DHT22;23120;52.336;21.182;2022-09-20T16:20:07;13.70;85.60
17066;DHT22;23120;52.336;21.182;2022-09-20T16:22:33;13.60;85.80
17066;DHT22;23120;52.336;21.182;2022-09-20T16:25:00;13.50;85.60
17066;DHT22;23120;52.336;21.182;2022-09-20T16:27:28;13.50;85.90
17066;DHT22;23120;52.336;21.182;2022-09-20T16:30:06;13.40;85.90
17066;DHT22;23120;52.336;21.182;2022-09-20T16:32:33;13.40;86.10
17066;DHT22;23120;52.336;21.182;2022-09-20T16:35:00;13.30;86.00
17066;DHT22;23120;52.336;21.182;2022-09-20T16:37:33;13.30;86.20
17066;DHT22;23120;52.336;21.182;2022-09-20T16:40:01;13.20;86.30
17066;DHT22;23120;52.336;21.182;2022-09-20T16:42:28;13.20;86.40